Time;durP1;ratioP1;P1;durP2;ratioP2;P2;SDS_P1;SDS_P2;PMS_P1;PMS_P2;Temp;Humidity;BMP_temperature;BMP_pressure;BME280_temperature;BME280_humidity;BME280_pressure;Samples;Min_cycle;Max_cycle;Signal;HPM_P1;HPM_P2
2023/12/22 00:01:51;;;;;;;;;;;;;;;18.41;60.28;99299.59;7392258;19;1862;-40
2023/12/22 00:04:22;;;;;;;;;;;;;;;18.38;60.28;99289.22;7395947;19;1046;-40
2023/12/22 00:06:51;;;;;;;;;;;;;;;18.45;60.03;99284.88;7395258;19;1551;-40
2023/12/22 00:09:20;;;;;;;;;;;;;;;18.40;60.21;99289.88;7394108;19;1479;-40
2023/12/22 00:11:48;;;;;;;;;;;;;;;18.45;60.09;99295.59;7393090;19;1574;-40
2023/12/22 00:14:17;;;;;;;;;;;;;;;18.52;59.84;99290.38;7393398;19;1516;-40
2023/12/22 00:16:45;;;;;;;;;;;;;;;18.50;60.04;99295.91;7393810;19;1452;-39
2023/12/22 00:19:13;;;;;;;;;;;;;;;18.54;59.83;99299.09;7393956;19;1497;-39
2023/12/22 00:21:45;;;;;;;;;;;;;;;18.56;59.88;99284.53;7392366;19;1851;-40
2023/12/22 00:24:13;;;;;;;;;;;;;;;18.47;59.94;99275.66;7390905;19;1444;-40
2023/12/22 00:26:41;;;;;;;;;;;;;;;18.49;60.07;99296.91;7391819;19;1459;-40
2023/12/22 00:29:10;;;;;;;;;;;;;;;18.49;59.94;99272.81;7390052;19;1452;-40
2023/12/22 00:31:38;;;;;;;;;;;;;;;18.43;60.16;99277.00;7394125;19;1419;-40
2023/12/22 00:34:06;;;;;;;;;;;;;;;18.45;60.11;99276.84;7393285;19;1392;-40
2023/12/22 00:36:35;;;;;;;;;;;;;;;18.46;60.10;99278.50;7393362;19;1833;-43
2023/12/22 00:39:05;;;;;;;;;;;;;;;18.44;60.11;99267.13;7392958;19;1926;-40
2023/12/22 00:41:34;;;;;;;;;;;;;;;18.46;60.06;99249.06;7392471;19;1845;-40
2023/12/22 00:44:02;;;;;;;;;;;;;;;18.45;60.10;99258.94;7392804;19;1805;-41
2023/12/22 00:46:30;;;;;;;;;;;;;;;18.44;60.36;99235.88;7392468;19;1582;-40
2023/12/22 00:48:56;;;;;;;;;;;;;;;18.44;60.06;99229.66;7391838;19;1393;-40
2023/12/22 00:51:24;;;;;;;;;;;;;;;18.48;60.02;99225.63;7392346;19;1570;-40
2023/12/22 00:53:53;;;;;;;;;;;;;;;18.49;60.17;99220.13;7392655;19;1500;-40
2023/12/22 00:56:24;;;;;;;;;;;;;;;18.51;59.95;99224.47;7392698;19;1395;-40
2023/12/22 00:58:53;;;;;;;;;;;;;;;18.45;60.07;99226.81;7377697;19;1492;-41
2023/12/22 01:01:21;;;;;;;;;;;;;;;18.47;59.96;99234.69;7392636;19;1853;-41
2023/12/22 01:03:49;;;;;;;;;;;;;;;18.55;60.24;99215.09;7393376;19;2469;-41
2023/12/22 01:06:18;;;;;;;;;;;;;;;18.48;60.02;99209.56;7391262;19;1925;-40
2023/12/22 01:08:49;;;;;;;;;;;;;;;18.46;60.13;99201.75;7392805;19;1585;-41
2023/12/22 01:11:18;;;;;;;;;;;;;;;18.24;60.47;99192.56;7392037;19;1767;-42
2023/12/22 01:13:49;;;;;;;;;;;;;;;17.95;60.89;99186.91;7391424;19;1477;-41
2023/12/22 01:16:21;;;;;;;;;;;;;;;17.80;61.66;99160.78;7391682;19;1521;-41
2023/12/22 01:18:50;;;;;;;;;;;;;;;17.70;61.97;99174.28;7391829;19;1587;-41
2023/12/22 01:21:18;;;;;;;;;;;;;;;17.66;61.77;99161.44;7391657;19;1837;-41
2023/12/22 01:23:46;;;;;;;;;;;;;;;17.64;61.88;99148.22;7390771;19;1559;-41
2023/12/22 01:26:15;;;;;;;;;;;;;;;17.52;62.00;99136.19;7392508;19;1377;-41
2023/12/22 01:28:43;;;;;;;;;;;;;;;17.54;62.28;99136.88;7391472;19;1776;-41
2023/12/22 01:31:14;;;;;;;;;;;;;;;17.50;62.22;99120.31;7391593;19;1575;-41
2023/12/22 01:33:42;;;;;;;;;;;;;;;17.32;62.47;99116.97;7390716;19;1590;-41
2023/12/22 01:36:10;;;;;;;;;;;;;;;17.22;62.79;99105.59;7391443;19;1392;-41
2023/12/22 01:38:39;;;;;;;;;;;;;;;17.13;62.73;99090.56;7390745;19;1566;-41
2023/12/22 01:41:08;;;;;;;;;;;;;;;17.10;63.04;99097.88;7389477;19;1499;-41
2023/12/22 01:43:36;;;;;;;;;;;;;;;17.56;62.05;99091.28;7389257;19;2172;-41
2023/12/22 01:46:05;;;;;;;;;;;;;;;18.00;61.03;99078.38;7389876;19;1524;-41
2023/12/22 01:48:37;;;;;;;;;;;;;;;17.99;61.14;99065.22;7390273;19;1377;-41
2023/12/22 01:51:06;;;;;;;;;;;;;;;17.79;61.54;99062.88;7390711;19;1789;-41
2023/12/22 01:53:35;;;;;;;;;;;;;;;17.60;61.87;99071.22;7390840;19;1579;-41
2023/12/22 01:56:04;;;;;;;;;;;;;;;17.47;62.21;99077.91;7390858;19;1408;-41
2023/12/22 01:58:35;;;;;;;;;;;;;;;17.43;62.30;99065.88;7377177;19;1298;-40
2023/12/22 02:01:03;;;;;;;;;;;;;;;17.39;62.50;99063.69;7391867;19;1389;-41
2023/12/22 02:03:32;;;;;;;;;;;;;;;17.28;62.60;99043.50;7389220;19;1845;-41
2023/12/22 02:06:03;;;;;;;;;;;;;;;17.75;61.45;99039.31;7389589;19;1509;-41
2023/12/22 02:08:34;;;;;;;;;;;;;;;18.00;60.89;99035.59;7390495;19;1564;-41
2023/12/22 02:11:02;;;;;;;;;;;;;;;17.94;61.05;99051.50;7390304;19;1517;-41
2023/12/22 02:13:31;;;;;;;;;;;;;;;17.69;61.63;99044.31;7387651;19;1601;-42
2023/12/22 02:16:03;;;;;;;;;;;;;;;17.53;61.97;99056.84;7390259;19;1406;-41
2023/12/22 02:18:35;;;;;;;;;;;;;;;17.41;62.32;99043.84;7387933;19;1377;-41
2023/12/22 02:21:06;;;;;;;;;;;;;;;17.35;62.24;99052.53;7389870;19;1220;-41
2023/12/22 02:23:37;;;;;;;;;;;;;;;17.25;62.75;99049.19;7388251;19;1853;-41
2023/12/22 02:26:09;;;;;;;;;;;;;;;17.58;61.91;99017.09;7396639;19;1249;-41
2023/12/22 02:28:38;;;;;;;;;;;;;;;17.87;61.03;99004.06;7396831;19;1947;-41
2023/12/22 02:31:12;;;;;;;;;;;;;;;17.97;61.25;99022.59;7396400;19;1496;-41
2023/12/22 02:33:42;;;;;;;;;;;;;;;18.77;59.19;99020.75;7397389;19;1510;-42
2023/12/22 02:36:11;;;;;;;;;;;;;;;19.13;58.50;99009.47;7397454;19;1218;-41
2023/12/22 02:38:42;;;;;;;;;;;;;;;19.24;57.93;99020.63;7397456;19;1566;-42
2023/12/22 02:41:11;;;;;;;;;;;;;;;19.21;58.31;99018.28;7396273;19;1475;-42
2023/12/22 02:43:39;;;;;;;;;;;;;;;19.27;58.00;99012.19;7394629;19;1853;-41
2023/12/22 02:46:15;;;;;;;;;;;;;;;19.39;57.84;99014.47;7396127;19;1567;-41
2023/12/22 02:48:43;;;;;;;;;;;;;;;19.30;58.04;99027.09;7396315;19;1529;-41
2023/12/22 02:51:11;;;;;;;;;;;;;;;19.39;57.80;99007.25;7396466;19;1392;-41
2023/12/22 02:53:42;;;;;;;;;;;;;;;19.45;57.79;99019.09;7396294;19;1504;-42
2023/12/22 02:56:11;;;;;;;;;;;;;;;19.44;57.85;99018.28;7397503;19;1489;-40
2023/12/22 02:58:39;;;;;;;;;;;;;;;19.48;57.73;99018.75;7384701;19;1381;-40
2023/12/22 03:01:07;;;;;;;;;;;;;;;19.47;57.79;99009.84;7397238;19;1353;-42
2023/12/22 03:03:36;;;;;;;;;;;;;;;19.60;57.75;99011.09;7395163;19;1928;-41
2023/12/22 03:06:04;;;;;;;;;;;;;;;19.57;57.41;99012.28;7395216;19;1566;-42
2023/12/22 03:08:32;;;;;;;;;;;;;;;19.59;57.65;99014.78;7396574;19;1570;-41
2023/12/22 03:11:03;;;;;;;;;;;;;;;19.63;57.69;99016.09;7394790;19;1826;-41
2023/12/22 03:13:31;;;;;;;;;;;;;;;19.61;57.60;99007.38;7395596;19;1494;-41
2023/12/22 03:16:00;;;;;;;;;;;;;;;19.68;57.22;99017.19;7395345;19;1438;-41
2023/12/22 03:18:28;;;;;;;;;;;;;;;19.62;57.59;99009.06;7395807;19;1380;-41
2023/12/22 03:20:56;;;;;;;;;;;;;;;19.65;57.67;99008.69;7397075;19;1565;-41
2023/12/22 03:23:24;;;;;;;;;;;;;;;19.70;57.25;98995.56;7393430;19;1948;-42
2023/12/22 03:25:53;;;;;;;;;;;;;;;19.73;57.29;98997.91;7392954;19;1475;-41
2023/12/22 03:28:24;;;;;;;;;;;;;;;19.79;57.51;99001.72;7395036;19;1504;-41
2023/12/22 03:30:52;;;;;;;;;;;;;;;19.72;57.33;98971.28;7395736;19;1493;-41
2023/12/22 03:33:20;;;;;;;;;;;;;;;19.70;57.49;98990.22;7394233;19;1863;-42
2023/12/22 03:35:49;;;;;;;;;;;;;;;19.77;57.40;98996.53;7394546;19;1604;-45
2023/12/22 03:38:17;;;;;;;;;;;;;;;19.64;57.70;99001.69;7394334;19;1479;-42
2023/12/22 03:40:45;;;;;;;;;;;;;;;19.74;57.42;98988.84;7394930;19;1469;-42
2023/12/22 03:43:14;;;;;;;;;;;;;;;19.79;57.36;98991.81;7392230;19;2138;-41
2023/12/22 03:45:44;;;;;;;;;;;;;;;19.73;57.54;99000.59;7395591;19;1520;-42
2023/12/22 03:48:13;;;;;;;;;;;;;;;19.77;57.45;98984.97;7394127;19;1940;-41
2023/12/22 03:50:41;;;;;;;;;;;;;;;19.80;57.43;98977.38;7395025;19;1975;-41
2023/12/22 03:53:09;;;;;;;;;;;;;;;19.86;57.25;98976.66;7395000;19;1401;-41
2023/12/22 03:55:38;;;;;;;;;;;;;;;19.79;57.30;98975.72;7394491;19;1913;-41
2023/12/22 03:58:07;;;;;;;;;;;;;;;19.77;57.60;98967.03;7393879;19;1759;-41
2023/12/22 04:00:35;;;;;;;;;;;;;;;19.45;58.17;98977.03;7377154;19;1713;-41
2023/12/22 04:03:06;;;;;;;;;;;;;;;18.93;59.51;98968.94;7393708;19;1859;-41
2023/12/22 04:05:35;;;;;;;;;;;;;;;18.54;60.39;98975.19;7394309;19;1469;-41
2023/12/22 04:08:03;;;;;;;;;;;;;;;18.32;60.88;98974.13;7393007;19;1575;-42
2023/12/22 04:10:31;;;;;;;;;;;;;;;18.24;61.28;98972.31;7394589;19;1436;-42
2023/12/22 04:13:00;;;;;;;;;;;;;;;18.34;61.05;98961.41;7393636;19;1505;-41
2023/12/22 04:15:28;;;;;;;;;;;;;;;18.42;60.92;98970.25;7394547;19;1393;-41
2023/12/22 04:17:56;;;;;;;;;;;;;;;18.63;60.28;98982.16;7394596;19;1540;-42
2023/12/22 04:20:27;;;;;;;;;;;;;;;18.86;59.77;98985.72;7393688;19;1624;-42
2023/12/22 04:22:55;;;;;;;;;;;;;;;18.94;59.59;98966.09;7392007;19;1845;-42
2023/12/22 04:25:25;;;;;;;;;;;;;;;18.86;59.69;98961.63;7391712;19;1778;-41
2023/12/22 04:27:53;;;;;;;;;;;;;;;18.85;59.57;98969.84;7393767;19;1620;-41
2023/12/22 04:30:22;;;;;;;;;;;;;;;18.81;59.65;98965.84;7392829;19;1392;-40
2023/12/22 04:32:50;;;;;;;;;;;;;;;18.81;59.65;98957.81;7393345;19;1208;-41
2023/12/22 04:35:18;;;;;;;;;;;;;;;18.80;59.72;98964.16;7392408;19;1586;-41
2023/12/22 04:37:49;;;;;;;;;;;;;;;18.83;59.78;98963.81;7392779;19;1881;-41
2023/12/22 04:40:18;;;;;;;;;;;;;;;18.74;59.53;98946.97;7391611;19;1529;-42
2023/12/22 04:42:46;;;;;;;;;;;;;;;18.82;59.26;98949.59;7392647;19;1849;-42
2023/12/22 04:45:16;;;;;;;;;;;;;;;18.82;59.60;98954.09;7393206;19;1483;-41
2023/12/22 04:47:45;;;;;;;;;;;;;;;18.80;59.63;98956.13;7390307;19;1381;-41
2023/12/22 04:50:13;;;;;;;;;;;;;;;18.85;59.63;98927.81;7392286;19;1552;-41
2023/12/22 04:52:41;;;;;;;;;;;;;;;18.82;59.62;98938.03;7390829;19;1586;-41
2023/12/22 04:55:12;;;;;;;;;;;;;;;18.82;59.49;98938.03;7391160;19;1841;-41
2023/12/22 04:57:41;;;;;;;;;;;;;;;18.96;59.46;98931.06;7390895;19;1380;-41
2023/12/22 05:00:10;;;;;;;;;;;;;;;18.90;59.76;98921.94;7377554;19;1508;-42
2023/12/22 05:02:38;;;;;;;;;;;;;;;18.94;59.77;98915.19;7390587;19;1877;-41
2023/12/22 05:05:08;;;;;;;;;;;;;;;18.79;60.36;98916.97;7388288;19;1601;-41
2023/12/22 05:07:36;;;;;;;;;;;;;;;18.91;59.84;98915.56;7388008;19;1473;-42
2023/12/22 05:10:04;;;;;;;;;;;;;;;18.80;59.79;98913.28;7387041;19;1571;-41
2023/12/22 05:12:35;;;;;;;;;;;;;;;18.85;59.82;98918.94;7388438;19;1246;-42
2023/12/22 05:15:04;;;;;;;;;;;;;;;18.85;59.75;98927.81;7388753;19;1655;-41
2023/12/22 05:17:32;;;;;;;;;;;;;;;18.85;59.63;98921.63;7387502;19;1218;-41
2023/12/22 05:20:01;;;;;;;;;;;;;;;18.85;59.61;98925.13;7386057;19;1392;-41
2023/12/22 05:22:29;;;;;;;;;;;;;;;18.90;59.65;98934.47;7386859;19;1877;-42
2023/12/22 05:24:58;;;;;;;;;;;;;;;18.79;59.72;98925.84;7384027;19;1853;-42
2023/12/22 05:27:26;;;;;;;;;;;;;;;18.77;59.89;98919.81;7390450;19;1582;-41
2023/12/22 05:30:01;;;;;;;;;;;;;;;18.79;59.96;98917.81;7390826;19;1583;-41
2023/12/22 05:32:29;;;;;;;;;;;;;;;18.81;59.74;98920.31;7390489;19;1504;-41
2023/12/22 05:34:57;;;;;;;;;;;;;;;18.72;59.96;98916.00;7390959;19;1421;-41
2023/12/22 05:37:26;;;;;;;;;;;;;;;18.77;59.78;98906.41;7388828;19;1374;-41
2023/12/22 05:39:55;;;;;;;;;;;;;;;18.83;59.58;98907.59;7391717;19;1335;-41
2023/12/22 05:42:23;;;;;;;;;;;;;;;18.89;59.35;98912.22;7392692;19;1063;-41
2023/12/22 05:44:51;;;;;;;;;;;;;;;18.97;59.17;98914.00;7390812;19;1842;-41
2023/12/22 05:47:22;;;;;;;;;;;;;;;18.92;59.34;98930.63;7388799;19;1243;-41
2023/12/22 05:49:51;;;;;;;;;;;;;;;18.89;59.56;98914.91;7391195;19;1607;-41
2023/12/22 05:52:19;;;;;;;;;;;;;;;19.02;59.41;98920.50;7391653;19;1468;-41
2023/12/22 05:54:47;;;;;;;;;;;;;;;18.93;59.39;98904.66;7390773;19;1409;-41
2023/12/22 05:57:16;;;;;;;;;;;;;;;18.89;59.60;98909.53;7390999;19;1719;-41
2023/12/22 05:59:45;;;;;;;;;;;;;;;18.94;59.81;98900.97;7376870;19;1377;-41
2023/12/22 06:02:13;;;;;;;;;;;;;;;19.04;59.67;98889.00;7399182;19;1465;-41
2023/12/22 06:04:44;;;;;;;;;;;;;;;19.10;58.68;98894.63;7396990;19;1867;-41
2023/12/22 06:07:12;;;;;;;;;;;;;;;19.11;59.10;98897.13;7400016;19;1146;-41
2023/12/22 06:09:39;;;;;;;;;;;;;;;19.04;59.25;98888.16;7399245;19;1465;-41
2023/12/22 06:12:08;;;;;;;;;;;;;;;18.95;59.08;98882.03;7398564;19;1908;-41
2023/12/22 06:14:36;;;;;;;;;;;;;;;18.96;59.08;98897.09;7395082;19;1504;-41
2023/12/22 06:17:05;;;;;;;;;;;;;;;18.98;58.68;98888.88;7398571;19;1688;-41
2023/12/22 06:19:33;;;;;;;;;;;;;;;19.07;58.80;98893.97;7395895;19;1707;-41
2023/12/22 06:22:04;;;;;;;;;;;;;;;18.99;58.59;98891.38;7399640;19;1024;-41
2023/12/22 06:24:32;;;;;;;;;;;;;;;18.93;58.61;98892.09;7397530;19;1845;-41
2023/12/22 06:27:00;;;;;;;;;;;;;;;18.87;59.10;98876.75;7393556;19;1818;-42
2023/12/22 06:29:30;;;;;;;;;;;;;;;18.65;59.79;98883.75;7397581;19;1773;-42
2023/12/22 06:31:58;;;;;;;;;;;;;;;18.63;60.17;98869.72;7395750;19;1525;-42
2023/12/22 06:34:27;;;;;;;;;;;;;;;18.61;60.22;98871.75;7393138;19;1516;-42
2023/12/22 06:36:55;;;;;;;;;;;;;;;18.59;60.41;98871.91;7393469;19;1495;-51
2023/12/22 06:39:26;;;;;;;;;;;;;;;18.66;60.55;98875.56;7395314;19;1313;-41
2023/12/22 06:41:54;;;;;;;;;;;;;;;18.60;60.62;98862.88;7396049;19;1348;-41
2023/12/22 06:44:22;;;;;;;;;;;;;;;18.61;60.61;98858.38;7394726;19;1861;-41
2023/12/22 06:46:51;;;;;;;;;;;;;;;18.57;60.88;98863.25;7396053;19;1861;-41
2023/12/22 06:49:19;;;;;;;;;;;;;;;18.59;60.93;98868.41;7396320;19;1779;-41
2023/12/22 06:51:48;;;;;;;;;;;;;;;18.69;60.99;98885.88;7393059;19;2532;-40
2023/12/22 06:54:16;;;;;;;;;;;;;;;18.82;60.62;98906.75;7392819;19;1255;-41
2023/12/22 06:56:47;;;;;;;;;;;;;;;18.78;60.77;98856.38;7393327;19;1300;-41
2023/12/22 06:59:15;;;;;;;;;;;;;;;18.84;60.56;98850.31;7392802;19;1327;-42
2023/12/22 07:01:44;;;;;;;;;;;;;;;18.83;60.55;98833.44;7380433;19;1698;-41
2023/12/22 07:04:12;;;;;;;;;;;;;;;18.85;60.63;98857.34;7395478;19;1842;-41
2023/12/22 07:06:40;;;;;;;;;;;;;;;18.86;60.42;98845.63;7396087;19;1842;-42
2023/12/22 07:09:23;;;;;;;;;;;;;;;19.01;60.25;98845.66;7393400;19;1846;-41
2023/12/22 07:11:55;;;;;;;;;;;;;;;18.99;60.12;98843.16;7395018;19;1556;-41
2023/12/22 07:14:24;;;;;;;;;;;;;;;18.72;60.73;98867.81;7395087;19;1834;-41
2023/12/22 07:16:52;;;;;;;;;;;;;;;18.38;61.55;98855.69;7395853;19;1282;-46
2023/12/22 07:19:21;;;;;;;;;;;;;;;18.08;62.47;98868.91;7391898;19;1373;-41
2023/12/22 07:21:49;;;;;;;;;;;;;;;17.94;62.70;98875.81;7391231;19;1710;-41
2023/12/22 07:24:18;;;;;;;;;;;;;;;17.80;63.23;98879.22;7390621;19;1856;-41
2023/12/22 07:26:46;;;;;;;;;;;;;;;18.14;62.38;98872.72;7394691;19;1508;-41
2023/12/22 07:29:18;;;;;;;;;;;;;;;18.60;61.08;98873.59;7395591;19;1632;-41
2023/12/22 07:31:46;;;;;;;;;;;;;;;18.61;60.74;98879.78;7395504;19;1147;-41
2023/12/22 07:34:14;;;;;;;;;;;;;;;18.26;61.38;98872.16;7394434;19;1242;-41
2023/12/22 07:36:43;;;;;;;;;;;;;;;18.06;61.80;98878.94;7393458;19;1846;-40
2023/12/22 07:39:11;;;;;;;;;;;;;;;17.85;62.31;98877.72;7391394;19;1838;-41
2023/12/22 07:41:40;;;;;;;;;;;;;;;17.95;61.90;98880.19;7391000;19;1763;-40
2023/12/22 07:44:08;;;;;;;;;;;;;;;18.44;60.78;98876.38;7389930;19;1896;-41
2023/12/22 07:46:39;;;;;;;;;;;;;;;18.67;59.79;98866.50;7390323;19;1731;-41
2023/12/22 07:49:07;;;;;;;;;;;;;;;18.40;60.72;98881.28;7389785;19;1491;-42
2023/12/22 07:51:35;;;;;;;;;;;;;;;18.12;61.40;98877.41;7389374;19;1459;-41
2023/12/22 07:54:04;;;;;;;;;;;;;;;17.85;61.91;98876.88;7390686;19;1400;-41
2023/12/22 07:56:32;;;;;;;;;;;;;;;17.77;62.20;98887.59;7390230;19;1810;-44
2023/12/22 07:59:02;;;;;;;;;;;;;;;18.16;61.21;98884.06;7392598;19;1822;-41
2023/12/22 08:01:31;;;;;;;;;;;;;;;18.72;59.75;98895.44;7381306;19;1719;-40
2023/12/22 08:04:01;;;;;;;;;;;;;;;18.52;60.28;98876.31;7395253;19;2047;-41
2023/12/22 08:06:30;;;;;;;;;;;;;;;18.18;60.97;98876.72;7394151;19;1948;-41
2023/12/22 08:08:58;;;;;;;;;;;;;;;17.94;61.41;98864.31;7394752;19;1850;-41
2023/12/22 08:11:26;;;;;;;;;;;;;;;17.79;61.75;98873.03;7394538;19;1485;-41
2023/12/22 08:13:55;;;;;;;;;;;;;;;18.02;61.31;98872.28;7395266;19;1584;-41
2023/12/22 08:16:23;;;;;;;;;;;;;;;18.56;59.96;98858.06;7394170;19;1842;-41
2023/12/22 08:18:52;;;;;;;;;;;;;;;18.56;59.86;98863.41;7394766;19;1525;-41
2023/12/22 08:21:23;;;;;;;;;;;;;;;18.21;60.54;98850.44;7394231;19;1829;-41
2023/12/22 08:23:52;;;;;;;;;;;;;;;17.95;61.06;98857.97;7390901;19;1853;-40
2023/12/22 08:26:21;;;;;;;;;;;;;;;17.78;61.54;98851.81;7394861;19;1055;-41
2023/12/22 08:28:49;;;;;;;;;;;;;;;18.07;61.07;98853.88;7395578;19;1012;-41
2023/12/22 08:31:18;;;;;;;;;;;;;;;18.59;59.62;98869.25;7394276;19;1921;-41
2023/12/22 08:33:46;;;;;;;;;;;;;;;18.51;59.55;98847.91;7393912;19;1823;-41
2023/12/22 08:36:15;;;;;;;;;;;;;;;18.23;60.34;98843.06;7392359;19;1827;-41
2023/12/22 08:38:46;;;;;;;;;;;;;;;17.97;60.87;98837.22;7393144;19;1813;-41
2023/12/22 08:41:14;;;;;;;;;;;;;;;17.87;61.34;98826.75;7393212;19;1751;-41
2023/12/22 08:43:43;;;;;;;;;;;;;;;18.01;60.82;98819.81;7392157;19;1821;-41
2023/12/22 08:46:11;;;;;;;;;;;;;;;18.43;59.81;98810.50;7390489;19;1848;-41
2023/12/22 08:48:40;;;;;;;;;;;;;;;18.83;58.82;98811.19;7394148;19;1916;-41
2023/12/22 08:51:08;;;;;;;;;;;;;;;18.65;59.02;98792.75;7393247;19;1586;-41
2023/12/22 08:53:37;;;;;;;;;;;;;;;18.28;59.82;98813.94;7392716;19;1504;-41
2023/12/22 08:56:08;;;;;;;;;;;;;;;18.01;60.75;98801.09;7393415;19;1620;-42
2023/12/22 08:58:36;;;;;;;;;;;;;;;17.82;61.19;98792.47;7393042;19;1735;-41
2023/12/22 09:01:02;;;;;;;;;;;;;;;17.93;60.99;98799.31;7378627;19;1754;-41
2023/12/22 09:03:30;;;;;;;;;;;;;;;18.48;59.57;98792.03;7393842;19;1110;-41
2023/12/22 09:05:59;;;;;;;;;;;;;;;18.82;58.74;98790.75;7390968;19;1849;-40
2023/12/22 09:08:27;;;;;;;;;;;;;;;18.94;58.26;98788.47;7392815;19;1019;-41
2023/12/22 09:10:55;;;;;;;;;;;;;;;18.57;58.91;98793.63;7391781;19;1228;-41
2023/12/22 09:13:29;;;;;;;;;;;;;;;18.24;59.96;98806.44;7391342;19;1747;-42
2023/12/22 09:15:59;;;;;;;;;;;;;;;17.94;60.66;98800.13;7392184;19;1502;-42
2023/12/22 09:18:27;;;;;;;;;;;;;;;17.84;60.92;98811.03;7393538;19;1034;-41
2023/12/22 09:20:56;;;;;;;;;;;;;;;18.26;60.11;98791.91;7391923;19;1953;-41
2023/12/22 09:23:24;;;;;;;;;;;;;;;18.68;58.91;98785.19;7391426;19;1746;-41
2023/12/22 09:25:52;;;;;;;;;;;;;;;18.71;58.80;98791.19;7389730;19;1841;-41
2023/12/22 09:28:21;;;;;;;;;;;;;;;18.35;59.58;98797.19;7391702;19;1413;-41
2023/12/22 09:30:52;;;;;;;;;;;;;;;18.06;60.27;98798.69;7390763;19;1139;-41
2023/12/22 09:33:22;;;;;;;;;;;;;;;17.91;60.63;98821.88;7390050;19;2510;-41
2023/12/22 09:35:50;;;;;;;;;;;;;;;17.94;60.62;98817.00;7391586;19;1846;-41
2023/12/22 09:38:20;;;;;;;;;;;;;;;18.40;59.39;98834.91;7391881;19;1420;-41
2023/12/22 09:40:48;;;;;;;;;;;;;;;18.82;58.46;98815.72;7391054;19;1409;-41
2023/12/22 09:43:18;;;;;;;;;;;;;;;18.66;58.61;98846.09;7391569;19;1699;-41
2023/12/22 09:45:47;;;;;;;;;;;;;;;18.33;59.64;98823.28;7389233;19;1855;-40
2023/12/22 09:48:20;;;;;;;;;;;;;;;18.05;59.99;98823.81;7390206;19;1488;-41
2023/12/22 09:50:49;;;;;;;;;;;;;;;17.98;60.33;98839.69;7389659;19;1491;-41
2023/12/22 09:53:18;;;;;;;;;;;;;;;18.19;60.07;98846.28;7392154;19;1727;-41
2023/12/22 09:55:48;;;;;;;;;;;;;;;18.62;59.17;98839.44;7391089;19;1708;-41
2023/12/22 09:58:17;;;;;;;;;;;;;;;18.68;58.77;98836.06;7390129;19;1365;-41
2023/12/22 10:00:46;;;;;;;;;;;;;;;18.42;59.35;98847.13;7377205;19;1680;-41
2023/12/22 10:03:15;;;;;;;;;;;;;;;18.11;59.93;98855.19;7392541;19;1054;-41
2023/12/22 10:05:46;;;;;;;;;;;;;;;17.88;60.70;98845.25;7387821;19;1845;-41
2023/12/22 10:08:15;;;;;;;;;;;;;;;17.86;60.74;98822.38;7391101;19;1574;-41
2023/12/22 10:10:44;;;;;;;;;;;;;;;18.37;59.58;98822.75;7390290;19;1457;-41
2023/12/22 10:13:12;;;;;;;;;;;;;;;18.77;58.53;98809.19;7391770;19;1585;-41
2023/12/22 10:15:42;;;;;;;;;;;;;;;18.75;58.39;98830.78;7391531;19;1032;-41
2023/12/22 10:18:11;;;;;;;;;;;;;;;18.52;59.09;98829.97;7391475;19;1046;-41
2023/12/22 10:20:39;;;;;;;;;;;;;;;18.26;59.60;98818.66;7391170;19;1771;-41
2023/12/22 10:23:10;;;;;;;;;;;;;;;18.06;60.11;98822.78;7388495;19;1921;-41
2023/12/22 10:25:39;;;;;;;;;;;;;;;18.12;60.16;98811.38;7389568;19;1855;-41
2023/12/22 10:28:07;;;;;;;;;;;;;;;18.66;59.00;98822.00;7390471;19;1416;-41
2023/12/22 10:30:36;;;;;;;;;;;;;;;19.08;57.66;98812.59;7389717;19;1727;-41
2023/12/22 10:33:06;;;;;;;;;;;;;;;18.96;57.83;98816.75;7389592;19;1483;-41
2023/12/22 10:35:34;;;;;;;;;;;;;;;18.62;58.73;98814.50;7387506;19;1774;-41
2023/12/22 10:38:03;;;;;;;;;;;;;;;18.39;59.19;98807.34;7389352;19;1771;-41
2023/12/22 10:40:34;;;;;;;;;;;;;;;18.22;59.90;98797.75;7387707;19;1572;-43
2023/12/22 10:43:02;;;;;;;;;;;;;;;18.18;60.43;98807.16;7390046;19;1605;-44
2023/12/22 10:45:32;;;;;;;;;;;;;;;18.57;59.78;98804.34;7389871;19;1850;-43
2023/12/22 10:48:01;;;;;;;;;;;;;;;18.95;58.99;98801.69;7396683;19;1624;-43
2023/12/22 10:50:30;;;;;;;;;;;;;;;18.97;58.74;98790.78;7397800;19;1003;-43
2023/12/22 10:52:58;;;;;;;;;;;;;;;18.72;59.66;98784.81;7396558;19;1948;-43
2023/12/22 10:55:27;;;;;;;;;;;;;;;18.44;60.20;98793.41;7395924;19;1301;-44
2023/12/22 10:57:58;;;;;;;;;;;;;;;18.28;60.74;98779.16;7396022;19;1924;-43
2023/12/22 11:00:27;;;;;;;;;;;;;;;18.15;60.96;98768.22;7396734;19;1604;-42
2023/12/22 11:03:01;;;;;;;;;;;;;;;18.40;60.67;98774.22;7383024;19;1719;-43
2023/12/22 11:05:30;;;;;;;;;;;;;;;18.76;59.62;98759.31;7395203;19;1850;-43
2023/12/22 11:08:03;;;;;;;;;;;;;;;18.88;59.30;98744.53;7394797;19;1545;-43
2023/12/22 11:10:33;;;;;;;;;;;;;;;18.59;59.83;98743.44;7395947;19;1549;-43
2023/12/22 11:13:05;;;;;;;;;;;;;;;18.34;60.35;98753.50;7396687;19;1187;-42
2023/12/22 11:15:33;;;;;;;;;;;;;;;18.11;61.19;98769.59;7391040;19;1242;-41
2023/12/22 11:18:03;;;;;;;;;;;;;;;17.94;61.47;98758.16;7391529;19;1736;-41
2023/12/22 11:20:33;;;;;;;;;;;;;;;18.21;60.93;98780.88;7390941;19;1603;-41
2023/12/22 11:23:02;;;;;;;;;;;;;;;18.48;60.19;98770.63;7391149;19;1628;-41
2023/12/22 11:25:31;;;;;;;;;;;;;;;18.67;59.66;98786.19;7391902;19;1841;-40
2023/12/22 11:28:01;;;;;;;;;;;;;;;18.51;59.90;98775.63;7393673;19;1840;-41
2023/12/22 11:30:33;;;;;;;;;;;;;;;18.25;60.53;98782.19;7392266;19;1792;-41
2023/12/22 11:33:02;;;;;;;;;;;;;;;18.03;60.89;98789.19;7394781;19;1809;-40
2023/12/22 11:35:31;;;;;;;;;;;;;;;17.86;61.57;98788.47;7394083;19;1541;-40
2023/12/22 11:38:00;;;;;;;;;;;;;;;18.09;61.26;98809.06;7393677;19;1398;-41
2023/12/22 11:40:28;;;;;;;;;;;;;;;18.53;60.50;98788.84;7390360;19;1350;-40
2023/12/22 11:42:57;;;;;;;;;;;;;;;18.71;59.43;98781.31;7392025;19;1527;-41
2023/12/22 11:45:25;;;;;;;;;;;;;;;18.86;59.34;98775.97;7391426;19;1855;-41
2023/12/22 11:47:56;;;;;;;;;;;;;;;18.89;59.16;98783.66;7394364;19;1718;-40
2023/12/22 11:50:31;;;;;;;;;;;;;;;18.85;59.17;98761.78;7393776;19;1575;-40
2023/12/22 11:52:59;;;;;;;;;;;;;;;18.79;59.55;98797.31;7392062;19;1496;-40
2023/12/22 11:55:42;;;;;;;;;;;;;;;18.81;59.42;98784.56;7391970;19;1686;-40
2023/12/22 11:58:26;;;;;;;;;;;;;;;18.86;59.31;98767.94;7388543;19;1736;-40
2023/12/22 12:00:55;;;;;;;;;;;;;;;18.91;59.50;98770.91;7390505;19;1636;-40
2023/12/22 12:03:27;;;;;;;;;;;;;;;18.88;59.65;98774.81;7375785;19;1561;-41
2023/12/22 12:06:12;;;;;;;;;;;;;;;18.91;59.37;98778.13;7388789;19;1856;-41
2023/12/22 12:08:41;;;;;;;;;;;;;;;18.93;59.26;98774.25;7389484;19;1645;-41
2023/12/22 12:11:10;;;;;;;;;;;;;;;19.05;59.09;98782.66;7391003;19;1602;-40
2023/12/22 12:13:41;;;;;;;;;;;;;;;18.94;59.49;98775.06;7390762;19;1683;-40
2023/12/22 12:16:09;;;;;;;;;;;;;;;18.86;59.51;98767.94;7391735;19;1807;-40
2023/12/22 12:18:42;;;;;;;;;;;;;;;18.96;59.36;98778.41;7389064;19;1475;-41
2023/12/22 12:21:11;;;;;;;;;;;;;;;18.98;59.55;98785.25;7391461;19;1458;-41
2023/12/22 12:23:40;;;;;;;;;;;;;;;19.00;59.40;98777.00;7391078;19;1247;-42
2023/12/22 12:26:08;;;;;;;;;;;;;;;19.00;59.51;98772.50;7389663;19;1887;-41
2023/12/22 12:28:38;;;;;;;;;;;;;;;19.03;59.44;98765.94;7390150;19;1556;-40
2023/12/22 12:31:07;;;;;;;;;;;;;;;18.95;59.39;98769.53;7388767;19;1916;-40
2023/12/22 12:33:37;;;;;;;;;;;;;;;18.96;59.52;98770.38;7388590;19;1687;-41
2023/12/22 12:36:09;;;;;;;;;;;;;;;18.95;59.73;98798.19;7390675;19;1928;-41
2023/12/22 12:38:46;;;;;;;;;;;;;;;18.98;59.42;98774.53;7390108;19;1487;-40
2023/12/22 12:41:14;;;;;;;;;;;;;;;18.97;59.75;98764.81;7388712;19;1504;-40
2023/12/22 12:43:44;;;;;;;;;;;;;;;18.74;60.33;98780.94;7390026;19;1423;-40
2023/12/22 12:46:12;;;;;;;;;;;;;;;18.45;61.03;98797.75;7389088;19;1853;-41
2023/12/22 12:48:40;;;;;;;;;;;;;;;18.23;61.65;98800.25;7391163;19;1503;-41
2023/12/22 12:51:12;;;;;;;;;;;;;;;18.07;61.87;98781.66;7390411;19;1515;-41
2023/12/22 12:53:40;;;;;;;;;;;;;;;17.98;62.11;98798.75;7391083;19;1491;-41
2023/12/22 12:56:09;;;;;;;;;;;;;;;18.26;61.60;98794.56;7390219;19;1370;-41
2023/12/22 12:58:39;;;;;;;;;;;;;;;18.73;60.37;98773.09;7389871;19;1390;-41
2023/12/22 13:01:08;;;;;;;;;;;;;;;18.88;60.08;98803.44;7391047;19;1656;-44
2023/12/22 13:03:53;;;;;;;;;;;;;;;19.04;59.45;98779.16;7374226;19;1311;-41
2023/12/22 13:06:25;;;;;;;;;;;;;;;19.08;59.65;98782.31;7389174;19;1825;-40
2023/12/22 13:08:53;;;;;;;;;;;;;;;19.06;59.51;98790.53;7391434;19;1383;-41